This is the latest recevied weather packets stored in our database for station/object OK1TOM-6. If no packets are shown the sender has not sent any weather packets the latest 10 day(s).
| Time | Temp. | Humidity | Pressure | Rain* | Wind** | Luminosity | Snow |
|---|---|---|---|---|---|---|---|
| 1777509924 | -1.11° C | 62% | 1031.2 hPa | 0 mm | - | - | - |
| 1777509321 | -1.11° C | 62% | 1031.2 hPa | 0 mm | - | - | - |
| 1777508717 | -0.56° C | 61% | 1031.3 hPa | 0 mm | - | - | - |
| 1777508174 | -0.56° C | 60% | 1031.4 hPa | 0 mm | - | - | - |
| 1777507570 | -0.56° C | 58% | 1031.7 hPa | 0 mm | - | - | - |
| 1777506967 | -0.56° C | 59% | 1031.5 hPa | 0 mm | - | - | - |
| 1777506364 | 0° C | 58% | 1031.5 hPa | 0 mm | - | - | - |
| 1777505761 | 0.56° C | 54% | 1031.6 hPa | 0 mm | - | - | - |
| 1777505157 | 1.11° C | 52% | 1031.6 hPa | 0 mm | - | - | - |
| 1777504554 | 1.11° C | 51% | 1031.7 hPa | 0 mm | - | - | - |
| 1777503950 | 1.67° C | 50% | 1031.6 hPa | 0 mm | - | - | - |
| 1777503347 | 1.67° C | 49% | 1031.5 hPa | 0 mm | - | - | - |
| 1777502744 | 1.67° C | 49% | 1031.4 hPa | 0 mm | - | - | - |
| 1777502140 | 1.67° C | 48% | 1031.3 hPa | 0 mm | - | - | - |
| 1777501537 | 1.67° C | 49% | 1031.3 hPa | 0 mm | - | - | - |
| 1777500933 | 1.67° C | 50% | 1031.3 hPa | 0 mm | - | - | - |
| 1777500330 | 1.11° C | 52% | 1031.2 hPa | 0 mm | - | - | - |
| 1777499726 | 1.67° C | 50% | 1031.2 hPa | 0 mm | - | - | - |
| 1777499123 | 1.67° C | 50% | 1031.2 hPa | 0 mm | - | - | - |
| 1777498519 | 1.67° C | 50% | 1031 hPa | 0 mm | - | - | - |
| 1777497916 | 1.67° C | 51% | 1031 hPa | 0 mm | - | - | - |
| 1777497373 | 1.67° C | 51% | 1030.8 hPa | 0 mm | - | - | - |
| 1777496769 | 2.22° C | 49% | 1030.9 hPa | 0 mm | - | - | - |
| 1777496166 | 2.22° C | 48% | 1030.9 hPa | 0 mm | - | - | - |
| 1777495562 | 2.22° C | 48% | 1030.8 hPa | 0 mm | - | - | - |
* Rain latest hour (hover to see other rain measurements)
** Current wind speed in m/s (hover to see current wind gust speed)